sensor_id;sensor_type;location;lat;lon;timestamp;pressure;altitude;pressure_sealevel;temperature;humidity
63946;BME280;50122;56.330;43.838;2023-01-26T00:01:21;101304.38;;;-2.98;82.97
63946;BME280;50122;56.330;43.838;2023-01-26T00:03:49;101314.88;;;-2.92;82.03
63946;BME280;50122;56.330;43.838;2023-01-26T00:06:18;101293.22;;;-2.95;82.91
63946;BME280;50122;56.330;43.838;2023-01-26T00:08:50;101301.00;;;-2.95;83.14
63946;BME280;50122;56.330;43.838;2023-01-26T00:11:20;101301.81;;;-2.97;82.80
63946;BME280;50122;56.330;43.838;2023-01-26T00:13:50;101314.09;;;-2.89;82.79
63946;BME280;50122;56.330;43.838;2023-01-26T00:16:17;101298.56;;;-2.89;82.46
63946;BME280;50122;56.330;43.838;2023-01-26T00:18:44;101299.34;;;-2.92;82.21
63946;BME280;50122;56.330;43.838;2023-01-26T00:21:13;101277.69;;;-2.97;82.98
63946;BME280;50122;56.330;43.838;2023-01-26T00:23:41;101293.41;;;-2.89;82.88
63946;BME280;50122;56.330;43.838;2023-01-26T00:26:09;101293.31;;;-2.92;83.16
63946;BME280;50122;56.330;43.838;2023-01-26T00:28:36;101284.50;;;-2.99;82.85
63946;BME280;50122;56.330;43.838;2023-01-26T00:31:05;101298.03;;;-2.77;83.28
63946;BME280;50122;56.330;43.838;2023-01-26T00:33:32;101277.00;;;-2.90;82.61
63946;BME280;50122;56.330;43.838;2023-01-26T00:35:59;101289.28;;;-2.83;83.05
63946;BME280;50122;56.330;43.838;2023-01-26T00:38:26;101286.69;;;-2.83;83.51
63946;BME280;50122;56.330;43.838;2023-01-26T00:40:53;101277.91;;;-2.88;83.62
63946;BME280;50122;56.330;43.838;2023-01-26T00:43:20;101292.06;;;-2.75;84.18
63946;BME280;50122;56.330;43.838;2023-01-26T00:45:46;101273.75;;;-2.83;84.10
63946;BME280;50122;56.330;43.838;2023-01-26T00:48:13;101300.75;;;-2.73;84.15
63946;BME280;50122;56.330;43.838;2023-01-26T00:50:40;101286.03;;;-2.75;84.33
63946;BME280;50122;56.330;43.838;2023-01-26T00:53:07;101275.75;;;-2.72;83.72
63946;BME280;50122;56.330;43.838;2023-01-26T00:55:35;101288.88;;;-2.65;83.30
63946;BME280;50122;56.330;43.838;2023-01-26T00:58:04;101280.06;;;-2.73;83.87
63946;BME280;50122;56.330;43.838;2023-01-26T01:00:32;101291.19;;;-2.75;83.81
63946;BME280;50122;56.330;43.838;2023-01-26T01:02:59;101273.84;;;-2.80;83.94
63946;BME280;50122;56.330;43.838;2023-01-26T01:05:28;101286.16;;;-2.69;84.29
63946;BME280;50122;56.330;43.838;2023-01-26T01:07:56;101277.59;;;-2.68;83.95
63946;BME280;50122;56.330;43.838;2023-01-26T01:10:24;101275.03;;;-2.67;84.22
63946;BME280;50122;56.330;43.838;2023-01-26T01:12:54;101291.47;;;-2.65;84.12
63946;BME280;50122;56.330;43.838;2023-01-26T01:15:22;101259.09;;;-2.82;83.78
63946;BME280;50122;56.330;43.838;2023-01-26T01:17:49;101270.66;;;-2.69;83.78
63946;BME280;50122;56.330;43.838;2023-01-26T01:20:16;101258.41;;;-2.75;83.96
63946;BME280;50122;56.330;43.838;2023-01-26T01:22:43;101228.75;;;-2.88;84.54
63946;BME280;50122;56.330;43.838;2023-01-26T01:25:09;101267.28;;;-2.67;84.44
63946;BME280;50122;56.330;43.838;2023-01-26T01:27:36;101256.72;;;-2.74;84.53
63946;BME280;50122;56.330;43.838;2023-01-26T01:30:04;101255.91;;;-2.72;83.82
63946;BME280;50122;56.330;43.838;2023-01-26T01:32:35;101254.50;;;-2.59;84.65
63946;BME280;50122;56.330;43.838;2023-01-26T01:35:02;101250.13;;;-2.62;83.79
63946;BME280;50122;56.330;43.838;2023-01-26T01:37:29;101248.44;;;-2.61;84.61
63946;BME280;50122;56.330;43.838;2023-01-26T01:39:58;101232.94;;;-2.59;84.71
63946;BME280;50122;56.330;43.838;2023-01-26T01:42:25;101239.88;;;-2.58;84.33
63946;BME280;50122;56.330;43.838;2023-01-26T01:45:31;101219.28;;;-2.54;83.89
63946;BME280;50122;56.330;43.838;2023-01-26T01:48:04;101232.25;;;-2.52;84.08
63946;BME280;50122;56.330;43.838;2023-01-26T01:50:36;101216.75;;;-2.52;84.43
63946;BME280;50122;56.330;43.838;2023-01-26T01:53:08;101205.41;;;-2.56;84.29
63946;BME280;50122;56.330;43.838;2023-01-26T01:55:36;101229.59;;;-2.55;84.08
63946;BME280;50122;56.330;43.838;2023-01-26T01:58:04;101206.34;;;-2.54;84.73
63946;BME280;50122;56.330;43.838;2023-01-26T02:00:31;101193.19;;;-2.62;84.33
63946;BME280;50122;56.330;43.838;2023-01-26T02:03:00;101193.56;;;-2.46;84.30
63946;BME280;50122;56.330;43.838;2023-01-26T02:06:06;101196.94;;;-2.50;83.25
63946;BME280;50122;56.330;43.838;2023-01-26T02:08:40;101196.97;;;-2.49;83.99
63946;BME280;50122;56.330;43.838;2023-01-26T02:11:13;101194.50;;;-2.44;83.25
63946;BME280;50122;56.330;43.838;2023-01-26T02:13:45;101181.47;;;-2.47;83.38
63946;BME280;50122;56.330;43.838;2023-01-26T02:16:14;101181.50;;;-2.46;84.05
63946;BME280;50122;56.330;43.838;2023-01-26T02:18:41;101178.84;;;-2.49;83.76
63946;BME280;50122;56.330;43.838;2023-01-26T02:21:11;101172.72;;;-2.52;83.88
63946;BME280;50122;56.330;43.838;2023-01-26T02:26:37;101165.63;;;-2.61;83.26
63946;BME280;50122;56.330;43.838;2023-01-26T02:29:07;101171.84;;;-2.53;84.53
63946;BME280;50122;56.330;43.838;2023-01-26T02:31:36;101169.22;;;-2.54;84.41
63946;BME280;50122;56.330;43.838;2023-01-26T02:34:03;101171.84;;;-2.53;83.90
63946;BME280;50122;56.330;43.838;2023-01-26T02:36:32;101152.69;;;-2.61;83.68
63946;BME280;50122;56.330;43.838;2023-01-26T02:39:13;101158.16;;;-2.47;83.34
63946;BME280;50122;56.330;43.838;2023-01-26T02:41:44;101144.13;;;-2.58;83.48
63946;BME280;50122;56.330;43.838;2023-01-26T02:44:29;101171.84;;;-2.53;83.36
63946;BME280;50122;56.330;43.838;2023-01-26T02:46:58;101151.13;;;-2.53;84.53
63946;BME280;50122;56.330;43.838;2023-01-26T02:49:25;101151.97;;;-2.55;83.60
63946;BME280;50122;56.330;43.838;2023-01-26T02:52:13;101157.28;;;-2.49;83.94
63946;BME280;50122;56.330;43.838;2023-01-26T02:54:40;101145.91;;;-2.54;83.49
63946;BME280;50122;56.330;43.838;2023-01-26T02:57:26;101134.59;;;-2.59;84.15
63946;BME280;50122;56.330;43.838;2023-01-26T02:59:53;101129.47;;;-2.58;84.03
63946;BME280;50122;56.330;43.838;2023-01-26T03:02:21;101147.75;;;-2.50;83.35
63946;BME280;50122;56.330;43.838;2023-01-26T03:04:48;101117.19;;;-2.67;83.62
63946;BME280;50122;56.330;43.838;2023-01-26T03:07:16;101139.06;;;-2.54;83.26
63946;BME280;50122;56.330;43.838;2023-01-26T03:09:43;101034.16;;;-3.14;84.00
63946;BME280;50122;56.330;43.838;2023-01-26T03:12:11;101137.44;;;-2.49;83.39
63946;BME280;50122;56.330;43.838;2023-01-26T03:14:38;101130.34;;;-2.56;84.06
63946;BME280;50122;56.330;43.838;2023-01-26T03:17:05;101134.75;;;-2.53;83.56
63946;BME280;50122;56.330;43.838;2023-01-26T03:19:32;101139.16;;;-2.49;84.05
63946;BME280;50122;56.330;43.838;2023-01-26T03:22:17;101139.19;;;-2.48;83.99
63946;BME280;50122;56.330;43.838;2023-01-26T03:25:03;101129.63;;;-2.50;83.29
63946;BME280;50122;56.330;43.838;2023-01-26T03:27:48;101115.69;;;-2.57;83.28
63946;BME280;50122;56.330;43.838;2023-01-26T03:30:17;101133.16;;;-2.48;83.78
63946;BME280;50122;56.330;43.838;2023-01-26T03:32:44;101139.28;;;-2.43;83.01
63946;BME280;50122;56.330;43.838;2023-01-26T03:35:11;101132.38;;;-2.44;83.43
63946;BME280;50122;56.330;43.838;2023-01-26T03:37:42;101126.19;;;-2.51;82.77
63946;BME280;50122;56.330;43.838;2023-01-26T03:40:11;101092.94;;;-2.70;83.42
63946;BME280;50122;56.330;43.838;2023-01-26T03:42:58;101126.06;;;-2.55;83.41
63946;BME280;50122;56.330;43.838;2023-01-26T03:45:50;101118.56;;;-2.43;83.25
63946;BME280;50122;56.330;43.838;2023-01-26T03:48:37;101120.25;;;-2.47;84.01
63946;BME280;50122;56.330;43.838;2023-01-26T03:51:22;101134.09;;;-2.43;83.65
63946;BME280;50122;56.330;43.838;2023-01-26T03:54:07;101129.69;;;-2.47;83.40
63946;BME280;50122;56.330;43.838;2023-01-26T03:56:53;101126.19;;;-2.51;83.23
63946;BME280;50122;56.330;43.838;2023-01-26T03:59:19;101129.78;;;-2.44;83.83
63946;BME280;50122;56.330;43.838;2023-01-26T04:02:09;101137.44;;;-2.49;83.17
63946;BME280;50122;56.330;43.838;2023-01-26T04:04:54;101134.00;;;-2.48;83.72
63946;BME280;50122;56.330;43.838;2023-01-26T04:07:42;101132.41;;;-2.42;83.87
63946;BME280;50122;56.330;43.838;2023-01-26T04:10:28;101124.66;;;-2.42;84.01
63946;BME280;50122;56.330;43.838;2023-01-26T04:12:54;101081.84;;;-2.65;83.62
63946;BME280;50122;56.330;43.838;2023-01-26T15:46:53;101098.28;;;-3.98;85.61
63946;BME280;50122;56.330;43.838;2023-01-26T15:49:21;101096.78;;;-3.90;85.75
63946;BME280;50122;56.330;43.838;2023-01-26T15:51:48;101091.09;;;-3.78;85.00
63946;BME280;50122;56.330;43.838;2023-01-26T15:54:17;101085.16;;;-3.75;84.31
63946;BME280;50122;56.330;43.838;2023-01-26T15:56:44;101076.50;;;-3.76;84.10
63946;BME280;50122;56.330;43.838;2023-01-26T15:59:11;101074.13;;;-3.68;83.64
63946;BME280;50122;56.330;43.838;2023-01-26T16:01:37;101080.41;;;-3.58;83.63
63946;BME280;50122;56.330;43.838;2023-01-26T16:04:04;101078.78;;;-3.55;83.85
63946;BME280;50122;56.330;43.838;2023-01-26T16:06:32;101082.44;;;-3.48;83.29
63946;BME280;50122;56.330;43.838;2023-01-26T16:08:58;101081.59;;;-3.45;82.14
63946;BME280;50122;56.330;43.838;2023-01-26T16:11:28;101087.66;;;-3.45;82.54
63946;BME280;50122;56.330;43.838;2023-01-26T16:13:55;101073.84;;;-3.45;82.20
63946;BME280;50122;56.330;43.838;2023-01-26T16:16:30;101089.44;;;-3.42;82.34
63946;BME280;50122;56.330;43.838;2023-01-26T16:18:58;101087.78;;;-3.40;81.83
63946;BME280;50122;56.330;43.838;2023-01-26T16:21:32;101081.91;;;-3.35;81.88
63946;BME280;50122;56.330;43.838;2023-01-26T16:24:00;101074.94;;;-3.37;82.11
63946;BME280;50122;56.330;43.838;2023-01-26T16:26:27;101066.47;;;-3.32;81.47
63946;BME280;50122;56.330;43.838;2023-01-26T16:28:55;101081.19;;;-3.29;81.29
63946;BME280;50122;56.330;43.838;2023-01-26T16:31:28;101077.66;;;-3.31;80.03
63946;BME280;50122;56.330;43.838;2023-01-26T16:33:58;101053.31;;;-3.41;80.45
63946;BME280;50122;56.330;43.838;2023-01-26T16:36:28;101067.41;;;-3.28;80.03
63946;BME280;50122;56.330;43.838;2023-01-26T16:38:54;101067.28;;;-3.33;81.05
63946;BME280;50122;56.330;43.838;2023-01-26T16:41:27;101059.53;;;-3.33;80.61
63946;BME280;50122;56.330;43.838;2023-01-26T16:43:57;101077.03;;;-3.22;80.69
63946;BME280;50122;56.330;43.838;2023-01-26T16:46:26;101065.69;;;-3.29;79.93
63946;BME280;50122;56.330;43.838;2023-01-26T16:48:53;101080.31;;;-3.28;80.63
63946;BME280;50122;56.330;43.838;2023-01-26T16:51:30;101071.59;;;-3.33;79.96
63946;BME280;50122;56.330;43.838;2023-01-26T16:53:59;101081.91;;;-3.35;80.17
63946;BME280;50122;56.330;43.838;2023-01-26T16:56:25;101083.84;;;-3.26;79.23
63946;BME280;50122;56.330;43.838;2023-01-26T16:58:53;101074.34;;;-3.27;79.50
63946;BME280;50122;56.330;43.838;2023-01-26T17:01:33;101074.44;;;-3.22;79.03
63946;BME280;50122;56.330;43.838;2023-01-26T17:04:02;101083.88;;;-3.24;79.42
63946;BME280;50122;56.330;43.838;2023-01-26T17:06:30;101080.41;;;-3.26;79.49
63946;BME280;50122;56.330;43.838;2023-01-26T17:08:57;101079.50;;;-3.27;80.21
63946;BME280;50122;56.330;43.838;2023-01-26T17:11:26;101084.75;;;-3.24;80.49
63946;BME280;50122;56.330;43.838;2023-01-26T17:13:54;101083.81;;;-3.27;79.62
63946;BME280;50122;56.330;43.838;2023-01-26T17:16:26;101077.81;;;-3.26;79.92
63946;BME280;50122;56.330;43.838;2023-01-26T17:18:58;101076.91;;;-3.27;79.44
63946;BME280;50122;56.330;43.838;2023-01-26T17:21:25;101082.16;;;-3.24;79.13
63946;BME280;50122;56.330;43.838;2023-01-26T17:23:54;101082.97;;;-3.26;80.08
63946;BME280;50122;56.330;43.838;2023-01-26T17:26:22;101083.09;;;-3.22;79.16
63946;BME280;50122;56.330;43.838;2023-01-26T17:28:52;101081.38;;;-3.21;78.94
63946;BME280;50122;56.330;43.838;2023-01-26T17:31:20;101087.41;;;-3.21;79.65
63946;BME280;50122;56.330;43.838;2023-01-26T17:33:48;101086.56;;;-3.20;78.74
63946;BME280;50122;56.330;43.838;2023-01-26T17:36:17;101082.22;;;-3.21;78.69
63946;BME280;50122;56.330;43.838;2023-01-26T17:38:48;101079.75;;;-3.18;78.88
63946;BME280;50122;56.330;43.838;2023-01-26T17:41:17;101088.41;;;-3.16;78.45
63946;BME280;50122;56.330;43.838;2023-01-26T17:43:44;101080.56;;;-3.19;78.72
63946;BME280;50122;56.330;43.838;2023-01-26T17:46:13;101083.25;;;-3.16;78.80
63946;BME280;50122;56.330;43.838;2023-01-26T17:48:41;101083.09;;;-3.22;78.40
63946;BME280;50122;56.330;43.838;2023-01-26T17:51:14;101069.00;;;-3.33;78.97
63946;BME280;50122;56.330;43.838;2023-01-26T17:53:45;101078.69;;;-3.26;79.38
63946;BME280;50122;56.330;43.838;2023-01-26T17:56:17;101077.03;;;-3.22;79.14
63946;BME280;50122;56.330;43.838;2023-01-26T17:58:51;101084.81;;;-3.21;79.26
63946;BME280;50122;56.330;43.838;2023-01-26T18:01:30;101049.06;;;-3.39;79.47
63946;BME280;50122;56.330;43.838;2023-01-26T18:03:57;101080.53;;;-3.20;78.96
63946;BME280;50122;56.330;43.838;2023-01-26T18:06:33;101073.41;;;-3.30;79.46
63946;BME280;50122;56.330;43.838;2023-01-26T18:09:09;101084.56;;;-3.32;79.42
63946;BME280;50122;56.330;43.838;2023-01-26T18:11:36;101071.41;;;-3.41;79.57
63946;BME280;50122;56.330;43.838;2023-01-26T18:14:03;101064.47;;;-3.42;79.30
63946;BME280;50122;56.330;43.838;2023-01-26T18:16:30;101080.94;;;-3.38;79.38
63946;BME280;50122;56.330;43.838;2023-01-26T18:18:58;101067.75;;;-3.49;79.49
63946;BME280;50122;56.330;43.838;2023-01-26T18:21:28;101086.13;;;-3.37;79.65
63946;BME280;50122;56.330;43.838;2023-01-26T18:23:58;101077.53;;;-3.37;79.76
63946;BME280;50122;56.330;43.838;2023-01-26T18:26:27;101076.66;;;-3.38;79.67
63946;BME280;50122;56.330;43.838;2023-01-26T18:28:55;101072.16;;;-3.45;80.18
63946;BME280;50122;56.330;43.838;2023-01-26T18:31:25;101074.00;;;-3.41;79.89
63946;BME280;50122;56.330;43.838;2023-01-26T18:33:51;101077.41;;;-3.42;80.27
63946;BME280;50122;56.330;43.838;2023-01-26T18:36:19;101075.63;;;-3.44;79.90
63946;BME280;50122;56.330;43.838;2023-01-26T18:38:49;101070.38;;;-3.47;79.81
63946;BME280;50122;56.330;43.838;2023-01-26T18:41:17;101072.91;;;-3.49;80.21
63946;BME280;50122;56.330;43.838;2023-01-26T18:43:44;101066.81;;;-3.51;80.05
63946;BME280;50122;56.330;43.838;2023-01-26T18:46:12;101082.34;;;-3.50;79.93
63946;BME280;50122;56.330;43.838;2023-01-26T18:48:39;101079.88;;;-3.46;79.79
63946;BME280;50122;56.330;43.838;2023-01-26T18:51:07;101066.78;;;-3.53;80.32
63946;BME280;50122;56.330;43.838;2023-01-26T18:53:39;101077.94;;;-3.55;80.07
63946;BME280;50122;56.330;43.838;2023-01-26T18:56:14;101065.69;;;-3.62;79.92
63946;BME280;50122;56.330;43.838;2023-01-26T18:58:42;101061.34;;;-3.63;80.22
63946;BME280;50122;56.330;43.838;2023-01-26T19:01:11;101071.75;;;-3.60;80.86
63946;BME280;50122;56.330;43.838;2023-01-26T19:03:40;101062.28;;;-3.60;80.45
63946;BME280;50122;56.330;43.838;2023-01-26T19:06:09;101065.75;;;-3.59;80.70
63946;BME280;50122;56.330;43.838;2023-01-26T19:08:36;101068.38;;;-3.58;80.71
63946;BME280;50122;56.330;43.838;2023-01-26T19:11:06;101071.88;;;-3.56;80.88
63946;BME280;50122;56.330;43.838;2023-01-26T19:13:34;101064.91;;;-3.58;80.67
63946;BME280;50122;56.330;43.838;2023-01-26T19:16:01;101064.13;;;-3.56;80.30
63946;BME280;50122;56.330;43.838;2023-01-26T19:18:27;101066.66;;;-3.57;80.03
63946;BME280;50122;56.330;43.838;2023-01-26T19:20:59;101058.84;;;-3.60;80.44
63946;BME280;50122;56.330;43.838;2023-01-26T19:23:27;101057.19;;;-3.57;80.53
63946;BME280;50122;56.330;43.838;2023-01-26T19:25:55;101066.66;;;-3.57;80.96
63946;BME280;50122;56.330;43.838;2023-01-26T19:28:21;101056.25;;;-3.60;80.29
63946;BME280;50122;56.330;43.838;2023-01-26T19:30:48;101053.78;;;-3.56;80.75
63946;BME280;50122;56.330;43.838;2023-01-26T19:33:15;101027.69;;;-3.67;80.65
63946;BME280;50122;56.330;43.838;2023-01-26T19:35:51;101046.69;;;-3.63;79.67
63946;BME280;50122;56.330;43.838;2023-01-26T19:38:18;101054.50;;;-3.61;80.13
63946;BME280;50122;56.330;43.838;2023-01-26T19:40:47;101056.06;;;-3.68;79.90
63946;BME280;50122;56.330;43.838;2023-01-26T19:43:15;101048.28;;;-3.70;80.26
63946;BME280;50122;56.330;43.838;2023-01-26T19:45:50;101049.88;;;-3.73;80.63
63946;BME280;50122;56.330;43.838;2023-01-26T19:48:19;101058.63;;;-3.68;80.03
63946;BME280;50122;56.330;43.838;2023-01-26T19:51:16;101063.78;;;-3.70;80.24
63946;BME280;50122;56.330;43.838;2023-01-26T19:53:52;101064.47;;;-3.75;80.58
63946;BME280;50122;56.330;43.838;2023-01-26T19:56:22;101059.38;;;-3.72;80.61
63946;BME280;50122;56.330;43.838;2023-01-26T19:58:54;101063.63;;;-3.74;81.10
63946;BME280;50122;56.330;43.838;2023-01-26T20:01:22;101070.53;;;-3.73;81.41
63946;BME280;50122;56.330;43.838;2023-01-26T20:03:54;101063.66;;;-3.73;81.21
63946;BME280;50122;56.330;43.838;2023-01-26T20:06:26;101054.09;;;-3.77;81.79
63946;BME280;50122;56.330;43.838;2023-01-26T20:08:53;101070.31;;;-3.82;82.21
63946;BME280;50122;56.330;43.838;2023-01-26T20:11:21;101069.28;;;-3.88;82.11
63946;BME280;50122;56.330;43.838;2023-01-26T20:13:56;101064.81;;;-3.93;82.97
63946;BME280;50122;56.330;43.838;2023-01-26T20:16:23;101070.66;;;-4.01;83.39
63946;BME280;50122;56.330;43.838;2023-01-26T20:18:50;101054.19;;;-4.06;83.91
63946;BME280;50122;56.330;43.838;2023-01-26T20:21:17;101068.91;;;-4.02;84.21
63946;BME280;50122;56.330;43.838;2023-01-26T20:23:43;101061.22;;;-4.00;85.15
63946;BME280;50122;56.330;43.838;2023-01-26T20:26:20;101069.91;;;-3.96;85.60
63946;BME280;50122;56.330;43.838;2023-01-26T20:28:47;101063.94;;;-3.95;85.54
63946;BME280;50122;56.330;43.838;2023-01-26T20:31:16;101056.13;;;-3.97;85.31
63946;BME280;50122;56.330;43.838;2023-01-26T20:33:45;101061.16;;;-4.02;85.85
63946;BME280;50122;56.330;43.838;2023-01-26T20:36:19;101056.66;;;-4.09;86.41
63946;BME280;50122;56.330;43.838;2023-01-26T20:38:47;101064.38;;;-4.09;86.83
63946;BME280;50122;56.330;43.838;2023-01-26T20:41:17;101059.16;;;-4.12;87.44
63946;BME280;50122;56.330;43.838;2023-01-26T20:43:45;101061.81;;;-4.09;87.29
63946;BME280;50122;56.330;43.838;2023-01-26T20:46:36;101066.03;;;-4.12;87.59
63946;BME280;50122;56.330;43.838;2023-01-26T20:49:06;101064.34;;;-4.10;87.66
63946;BME280;50122;56.330;43.838;2023-01-26T20:51:35;101063.41;;;-4.14;87.89
63946;BME280;50122;56.330;43.838;2023-01-26T20:54:05;101068.56;;;-4.14;87.58
63946;BME280;50122;56.330;43.838;2023-01-26T20:56:32;101061.66;;;-4.15;88.21
63946;BME280;50122;56.330;43.838;2023-01-26T20:58:59;101064.25;;;-4.13;88.75
63946;BME280;50122;56.330;43.838;2023-01-26T21:01:26;101046.97;;;-4.16;88.52
63946;BME280;50122;56.330;43.838;2023-01-26T21:03:53;101054.91;;;-4.10;88.79
63946;BME280;50122;56.330;43.838;2023-01-26T21:06:21;101054.91;;;-4.10;88.34
63946;BME280;50122;56.330;43.838;2023-01-26T21:08:52;101044.56;;;-4.11;88.73
63946;BME280;50122;56.330;43.838;2023-01-26T21:11:22;101044.66;;;-4.07;88.94
63946;BME280;50122;56.330;43.838;2023-01-26T21:13:49;101043.84;;;-4.06;88.95
63946;BME280;50122;56.330;43.838;2023-01-26T21:16:17;101045.56;;;-4.05;88.57
63946;BME280;50122;56.330;43.838;2023-01-26T21:18:45;101031.69;;;-4.10;88.25
63946;BME280;50122;56.330;43.838;2023-01-26T21:21:13;101037.66;;;-4.11;88.52
63946;BME280;50122;56.330;43.838;2023-01-26T21:23:43;101031.69;;;-4.10;88.54
63946;BME280;50122;56.330;43.838;2023-01-26T21:26:15;101040.16;;;-4.14;88.71
63946;BME280;50122;56.330;43.838;2023-01-26T21:28:43;101027.06;;;-4.22;88.50
63946;BME280;50122;56.330;43.838;2023-01-26T21:31:12;101029.72;;;-4.19;88.80
63946;BME280;50122;56.330;43.838;2023-01-26T21:33:44;101026.06;;;-4.25;88.69
63946;BME280;50122;56.330;43.838;2023-01-26T21:36:13;101028.00;;;-4.18;88.78
63946;BME280;50122;56.330;43.838;2023-01-26T21:38:42;101023.63;;;-4.21;88.91
63946;BME280;50122;56.330;43.838;2023-01-26T21:41:22;101023.63;;;-4.21;88.98
63946;BME280;50122;56.330;43.838;2023-01-26T21:44:12;101029.59;;;-4.23;88.65
63946;BME280;50122;56.330;43.838;2023-01-26T21:46:40;101020.09;;;-4.24;88.59
63946;BME280;50122;56.330;43.838;2023-01-26T21:49:08;101007.03;;;-4.30;89.22
63946;BME280;50122;56.330;43.838;2023-01-26T21:51:36;101017.47;;;-4.26;89.01
63946;BME280;50122;56.330;43.838;2023-01-26T21:54:21;101021.78;;;-4.25;89.06
63946;BME280;50122;56.330;43.838;2023-01-26T21:56:48;101010.50;;;-4.28;88.59
63946;BME280;50122;56.330;43.838;2023-01-26T21:59:16;101015.78;;;-4.24;88.66
63946;BME280;50122;56.330;43.838;2023-01-26T22:01:46;101018.41;;;-4.22;88.79
63946;BME280;50122;56.330;43.838;2023-01-26T22:04:19;101021.94;;;-4.20;88.79
63946;BME280;50122;56.330;43.838;2023-01-26T22:06:46;101020.91;;;-4.25;88.92
63946;BME280;50122;56.330;43.838;2023-01-26T22:09:15;101030.41;;;-4.24;88.70
63946;BME280;50122;56.330;43.838;2023-01-26T22:11:42;101022.75;;;-4.21;89.21
63946;BME280;50122;56.330;43.838;2023-01-26T22:14:16;101001.75;;;-4.33;88.45
63946;BME280;50122;56.330;43.838;2023-01-26T22:16:43;101026.03;;;-4.27;87.85
63946;BME280;50122;56.330;43.838;2023-01-26T22:19:10;101022.50;;;-4.30;88.32
63946;BME280;50122;56.330;43.838;2023-01-26T22:21:38;101014.56;;;-4.37;88.49
63946;BME280;50122;56.330;43.838;2023-01-26T22:24:05;101025.97;;;-4.30;88.51
63946;BME280;50122;56.330;43.838;2023-01-26T22:26:35;101031.25;;;-4.25;88.45
63946;BME280;50122;56.330;43.838;2023-01-26T22:29:02;101019.94;;;-4.30;88.36
63946;BME280;50122;56.330;43.838;2023-01-26T22:31:30;101026.78;;;-4.31;88.76
63946;BME280;50122;56.330;43.838;2023-01-26T22:33:58;101027.69;;;-4.30;88.88
63946;BME280;50122;56.330;43.838;2023-01-26T22:36:26;101018.16;;;-4.31;88.48
63946;BME280;50122;56.330;43.838;2023-01-26T22:38:54;101015.50;;;-4.34;88.42
63946;BME280;50122;56.330;43.838;2023-01-26T22:41:23;101017.28;;;-4.32;88.78
63946;BME280;50122;56.330;43.838;2023-01-26T22:43:52;101016.44;;;-4.31;89.51
63946;BME280;50122;56.330;43.838;2023-01-26T22:46:23;101012.19;;;-4.30;88.93
63946;BME280;50122;56.330;43.838;2023-01-26T22:48:52;101015.53;;;-4.33;89.29
63946;BME280;50122;56.330;43.838;2023-01-26T22:51:21;101010.47;;;-4.30;89.89
63946;BME280;50122;56.330;43.838;2023-01-26T22:53:50;101018.25;;;-4.28;89.74
63946;BME280;50122;56.330;43.838;2023-01-26T22:56:17;101011.22;;;-4.34;89.86
63946;BME280;50122;56.330;43.838;2023-01-26T22:58:53;101009.31;;;-4.40;90.24
63946;BME280;50122;56.330;43.838;2023-01-26T23:01:30;101026.78;;;-4.31;90.33
63946;BME280;50122;56.330;43.838;2023-01-26T23:03:57;101008.53;;;-4.37;90.33
63946;BME280;50122;56.330;43.838;2023-01-26T23:06:25;101015.59;;;-4.31;90.78
63946;BME280;50122;56.330;43.838;2023-01-26T23:08:52;101010.47;;;-4.30;90.88
63946;BME280;50122;56.330;43.838;2023-01-26T23:11:20;101013.88;;;-4.31;91.09
63946;BME280;50122;56.330;43.838;2023-01-26T23:13:48;101010.38;;;-4.33;91.67
63946;BME280;50122;56.330;43.838;2023-01-26T23:16:16;101014.63;;;-4.35;91.09
63946;BME280;50122;56.330;43.838;2023-01-26T23:18:43;101015.50;;;-4.34;91.18
63946;BME280;50122;56.330;43.838;2023-01-26T23:21:10;101013.75;;;-4.36;91.48
63946;BME280;50122;56.330;43.838;2023-01-26T23:23:38;101019.84;;;-4.32;91.41
63946;BME280;50122;56.330;43.838;2023-01-26T23:26:05;101013.06;;;-4.30;91.04
63946;BME280;50122;56.330;43.838;2023-01-26T23:28:36;101005.88;;;-4.40;90.70
63946;BME280;50122;56.330;43.838;2023-01-26T23:31:04;101012.56;;;-4.47;90.95
63946;BME280;50122;56.330;43.838;2023-01-26T23:33:32;101017.72;;;-4.47;90.76
63946;BME280;50122;56.330;43.838;2023-01-26T23:36:00;101020.22;;;-4.50;90.88
63946;BME280;50122;56.330;43.838;2023-01-26T23:38:28;101013.16;;;-4.56;91.04
63946;BME280;50122;56.330;43.838;2023-01-26T23:40:55;101017.69;;;-4.48;91.22
63946;BME280;50122;56.330;43.838;2023-01-26T23:43:23;101012.50;;;-4.48;90.95
63946;BME280;50122;56.330;43.838;2023-01-26T23:45:51;101018.59;;;-4.46;91.22
63946;BME280;50122;56.330;43.838;2023-01-26T23:48:22;101004.69;;;-4.51;91.64
63946;BME280;50122;56.330;43.838;2023-01-26T23:50:57;101016.59;;;-4.55;91.50
63946;BME280;50122;56.330;43.838;2023-01-26T23:53:24;101008.91;;;-4.54;91.27
63946;BME280;50122;56.330;43.838;2023-01-26T23:55:51;101011.44;;;-4.55;91.44
63946;BME280;50122;56.330;43.838;2023-01-26T23:58:18;101021.31;;;-4.42;91.87
